Terminal Aerodrome Forecast
Issued by NWS

Home | Current Version | Previous Version | Text Only | Print | Product List | Glossary On
Versions: 1 2 3 4 5 6 7 8 9 10 11 12 13
000
FTUS43 KMPX 290500
TAFRWF
TAF
KRWF 290522Z 2906/3006 02006KT P6SM OVC070
      TEMPO 2906/2908 BKN028
     FM292100 34010KT P6SM SKC=

USA.gov is the U.S. government's official web portal to all federal, state and local government web resources and services.